Time;durP1;ratioP1;P1;durP2;ratioP2;P2;SDS_P1;SDS_P2;PMS_P1;PMS_P2;Temp;Humidity;BMP_temperature;BMP_pressure;BME280_temperature;BME280_humidity;BME280_pressure;Samples;Min_cycle;Max_cycle;Signal;HPM_P1;HPM_P2
2021/01/27 00:00:49;;;;;;;5.33;2.40;;;1.20;70.20;;;1.67;61.69;97885.53;4927958;29;20048;-39
2021/01/27 00:03:18;;;;;;;3.47;1.73;;;1.20;70.00;;;1.67;62.02;97880.28;4928400;29;20062;-38
2021/01/27 00:05:50;;;;;;;3.10;2.10;;;1.20;70.30;;;1.66;62.10;97889.06;4944392;29;20050;-38
2021/01/27 00:08:18;;;;;;;2.37;1.70;;;1.20;70.20;;;1.66;61.13;97880.38;4944569;29;20048;-39
2021/01/27 00:10:47;;;;;;;3.00;1.77;;;1.20;70.20;;;1.64;61.64;97872.59;4944770;29;20085;-38
2021/01/27 00:13:19;;;;;;;5.83;2.23;;;1.20;70.00;;;1.63;61.48;97873.53;4944675;29;20051;-38
2021/01/27 00:15:48;;;;;;;3.47;1.90;;;1.20;71.00;;;1.65;62.14;97866.41;4927685;29;20047;-39
2021/01/27 00:18:18;;;;;;;4.87;2.00;;;1.20;70.00;;;1.64;61.84;97858.63;4944180;29;20052;-39
2021/01/27 00:20:46;;;;;;;3.10;1.80;;;1.20;69.80;;;1.64;61.64;97858.63;4944470;29;20043;-38
2021/01/27 00:23:14;;;;;;;6.10;2.40;;;1.20;69.80;;;1.61;61.58;97849.19;4944612;29;20070;-39
2021/01/27 00:25:41;;;;;;;4.10;2.30;;;1.10;69.70;;;1.57;61.68;97853.78;4944112;29;20248;-38
2021/01/27 00:28:10;;;;;;;4.67;2.60;;;1.10;70.00;;;1.53;61.74;97847.06;4927995;29;20054;-38
2021/01/27 00:30:41;;;;;;;4.30;3.03;;;1.00;70.10;;;1.49;61.34;97842.97;4927910;29;20070;-38
2021/01/27 00:33:12;;;;;;;5.57;2.70;;;1.00;70.30;;;1.46;61.36;97855.44;4944030;29;20062;-38
2021/01/27 00:35:47;;;;;;;3.47;1.90;;;0.90;70.10;;;1.44;61.33;97849.44;4927297;29;20054;-38
2021/01/27 00:38:21;;;;;;;3.07;2.20;;;0.90;69.80;;;1.41;60.80;97850.47;4944540;29;20055;-38
2021/01/27 00:40:50;;;;;;;3.50;2.25;;;0.90;70.00;;;1.38;61.68;97846.25;4944258;29;20055;-38
2021/01/27 00:43:18;;;;;;;5.43;2.47;;;0.80;69.80;;;1.35;61.21;97837.75;4944326;29;20058;-38
2021/01/27 00:45:48;;;;;;;3.27;1.53;;;0.80;70.00;;;1.33;61.58;97826.50;4943777;29;20048;-38
2021/01/27 00:48:16;;;;;;;3.60;1.87;;;0.80;69.70;;;1.31;61.34;97821.34;4944438;29;20172;-38
2021/01/27 00:50:43;;;;;;;3.97;2.10;;;0.80;69.70;;;1.31;61.02;97817.91;4944373;29;20057;-39
2021/01/27 00:53:11;;;;;;;3.00;2.00;;;0.80;69.70;;;1.31;61.62;97813.47;4944363;29;20056;-38
2021/01/27 00:55:45;;;;;;;3.72;2.30;;;0.90;69.60;;;1.33;60.99;97811.59;4945287;29;20054;-38
2021/01/27 00:58:13;;;;;;;3.93;2.27;;;0.90;69.30;;;1.37;61.30;97810.47;4948230;29;20058;-38
2021/01/27 01:00:45;;;;;;;3.17;1.90;;;0.90;70.10;;;1.39;61.35;97815.63;4933998;29;20048;-38
2021/01/27 01:03:21;;;;;;;3.67;2.37;;;0.90;69.80;;;1.41;61.42;97816.34;4946796;29;20058;-39
2021/01/27 01:05:49;;;;;;;3.63;2.00;;;1.00;70.10;;;1.42;61.37;97819.84;4947365;29;20048;-38
2021/01/27 01:08:18;;;;;;;3.77;1.90;;;1.00;69.60;;;1.43;61.18;97814.47;4947753;29;20054;-38
2021/01/27 01:10:52;;;;;;;3.10;2.13;;;1.00;69.70;;;1.45;61.03;97814.38;4947333;29;20051;-38
2021/01/27 01:13:25;;;;;;;2.97;2.22;;;1.00;70.10;;;1.45;60.96;97819.63;4947598;29;20063;-38
2021/01/27 01:15:53;;;;;;;3.55;2.00;;;1.00;70.00;;;1.43;60.92;97811.84;4947356;29;20250;-38
2021/01/27 01:18:21;;;;;;;2.70;1.83;;;1.00;70.00;;;1.43;61.61;97811.00;4947473;29;20043;-38
2021/01/27 01:20:49;;;;;;;4.30;2.40;;;1.00;70.10;;;1.43;61.42;97814.47;4945590;29;20043;-38
2021/01/27 01:23:20;;;;;;;5.60;2.20;;;1.00;69.70;;;1.44;60.74;97816.16;4946235;29;20043;-38
2021/01/27 01:25:49;;;;;;;3.40;2.50;;;1.00;69.60;;;1.44;61.60;97813.53;4946960;29;20349;-39
2021/01/27 01:28:18;;;;;;;4.07;2.13;;;1.00;69.60;;;1.47;61.45;97815.94;4947374;29;20264;-39
2021/01/27 01:30:48;;;;;;;3.70;2.00;;;1.10;69.40;;;1.46;61.30;97798.53;4947189;29;20051;-39
2021/01/27 01:33:30;;;;;;;4.97;2.57;;;1.00;69.40;;;1.49;61.20;97795.72;4947260;29;20047;-38
2021/01/27 01:35:58;;;;;;;4.53;2.33;;;1.10;69.70;;;1.49;61.12;97789.63;4946817;29;20062;-38
2021/01/27 01:38:26;;;;;;;5.87;2.63;;;1.00;69.60;;;1.47;60.60;97788.88;4947143;29;20055;-38
2021/01/27 01:40:58;;;;;;;4.43;2.27;;;1.00;69.50;;;1.47;60.58;97787.09;4946934;29;20051;-38
2021/01/27 01:43:31;;;;;;;4.67;2.20;;;1.00;69.30;;;1.48;61.32;97783.53;4947083;29;20054;-39
2021/01/27 01:46:09;;;;;;;5.20;2.77;;;1.00;69.60;;;1.45;60.81;97791.59;4946621;29;20050;-38
2021/01/27 01:49:07;;;;;;;5.23;2.47;;;1.00;69.30;;;1.46;60.54;97780.16;4946007;29;20048;-39
2021/01/27 01:51:48;;;;;;;2.97;1.93;;;1.10;69.00;;;1.46;60.89;97772.31;4946975;29;20055;-38
2021/01/27 01:54:40;;;;;;;5.87;2.80;;;1.10;69.30;;;1.48;61.17;97765.16;4946081;29;20055;-38
2021/01/27 01:57:26;;;;;;;3.40;2.20;;;1.10;69.00;;;1.48;60.77;97772.19;4945811;29;20060;-38
2021/01/27 01:59:59;;;;;;;3.63;2.43;;;1.10;69.00;;;1.46;60.45;97771.47;4946760;29;20052;-39
2021/01/27 02:02:27;;;;;;;4.32;2.38;;;1.00;69.20;;;1.44;60.48;97765.47;4945422;29;20043;-38
2021/01/27 02:04:59;;;;;;;4.77;2.50;;;1.00;69.20;;;1.40;60.36;97769.22;4946302;29;20259;-38
2021/01/27 02:07:28;;;;;;;3.23;2.10;;;1.00;70.30;;;1.41;60.27;97770.91;4944017;29;20245;-38
2021/01/27 02:09:55;;;;;;;3.87;2.07;;;0.90;69.80;;;1.41;60.65;97749.94;4936465;29;20296;-38
2021/01/27 02:12:43;;;;;;;4.27;2.50;;;0.90;69.60;;;1.39;60.68;97739.53;4945958;29;20038;-38
2021/01/27 02:15:35;;;;;;;4.70;2.60;;;0.90;69.50;;;1.37;60.19;97739.63;4943217;29;20349;-38
2021/01/27 02:18:15;;;;;;;4.43;2.20;;;0.90;69.20;;;1.34;60.38;97734.59;4942348;29;20062;-38
2021/01/27 02:21:07;;;;;;;3.50;2.43;;;0.90;69.80;;;1.35;60.88;97736.25;4921124;29;20056;-39
2021/01/27 02:23:49;;;;;;;4.40;2.77;;;0.90;69.80;;;1.35;60.51;97733.63;4942476;29;20073;-45
2021/01/27 02:27:02;;;;;;;2.90;1.80;;;0.90;69.40;;;1.35;60.64;97738.06;4944548;29;20265;-39
2021/01/27 02:30:03;;;;;;;3.43;1.90;;;1.00;69.40;;;1.37;61.04;97742.25;4932002;29;20337;-39
2021/01/27 02:33:00;;;;;;;3.07;2.00;;;1.00;69.40;;;1.38;61.14;97745.75;4945864;29;20048;-38
2021/01/27 02:35:54;;;;;;;3.67;2.20;;;1.00;69.30;;;1.39;60.87;97752.66;4924892;29;20052;-38
2021/01/27 02:39:01;;;;;;;3.55;2.47;;;1.00;69.00;;;1.37;60.50;97736.16;4914493;29;20052;-38
2021/01/27 02:42:10;;;;;;;5.30;2.43;;;0.90;69.60;;;1.33;60.74;97738.16;4940826;29;20054;-39
2021/01/27 02:45:08;;;;;;;4.07;2.00;;;0.90;69.40;;;1.35;60.52;97732.81;4924914;29;20364;-38
2021/01/27 02:48:13;;;;;;;3.67;2.30;;;0.90;69.70;;;1.33;60.28;97739.94;4929999;29;20305;-39
2021/01/27 02:51:06;;;;;;;3.03;2.03;;;0.90;69.30;;;1.32;61.17;97728.63;4930026;29;20051;-38
2021/01/27 02:53:42;;;;;;;4.40;2.13;;;0.90;70.00;;;1.34;60.94;97745.09;4929586;29;20058;-38
2021/01/27 02:56:28;;;;;;;3.33;2.17;;;0.90;70.10;;;1.33;60.98;97742.56;4913688;29;20052;-38
2021/01/27 02:59:24;;;;;;;6.03;2.30;;;0.90;69.90;;;1.33;60.70;97742.56;4929274;29;20054;-38
2021/01/27 03:02:08;;;;;;;4.67;2.40;;;0.90;69.70;;;1.34;61.00;97734.59;4923331;29;20084;-38
2021/01/27 03:04:48;;;;;;;4.57;1.90;;;0.90;70.10;;;1.36;60.69;97730.09;4945486;29;20054;-38
2021/01/27 03:07:18;;;;;;;3.53;2.33;;;0.90;70.30;;;1.34;61.00;97726.72;4929574;29;20058;-38
2021/01/27 03:10:05;;;;;;;3.47;2.17;;;0.90;70.10;;;1.35;61.41;97712.66;4929119;29;20060;-39
2021/01/27 03:12:33;;;;;;;2.80;2.00;;;0.90;69.70;;;1.37;61.18;97713.38;4945481;29;20051;-38
2021/01/27 03:15:00;;;;;;;5.03;1.83;;;0.90;70.00;;;1.38;61.21;97722.97;4944982;29;20059;-38
2021/01/27 03:17:31;;;;;;;3.20;1.90;;;1.00;69.80;;;1.40;61.05;97717.63;4945221;29;20226;-38
2021/01/27 03:20:18;;;;;;;3.53;1.83;;;1.00;69.30;;;1.45;60.78;97719.91;4928501;29;20296;-38
2021/01/27 03:22:56;;;;;;;2.63;2.00;;;1.10;68.90;;;1.48;59.91;97719.72;4929871;29;20043;-38
2021/01/27 03:25:29;;;;;;;4.23;1.80;;;1.10;68.10;;;1.51;60.88;97715.13;4944734;29;20049;-38
2021/01/27 03:28:32;;;;;;;4.05;1.75;;;1.10;68.40;;;1.52;60.14;97719.41;4928974;29;20086;-38
2021/01/27 03:31:00;;;;;;;4.97;2.30;;;1.20;67.90;;;1.54;60.42;97714.91;4929889;29;20074;-38
2021/01/27 03:33:40;;;;;;;3.97;2.00;;;1.10;68.80;;;1.56;60.39;97714.81;4945093;29;20062;-38
2021/01/27 03:36:11;;;;;;;2.30;1.70;;;1.20;67.60;;;1.58;60.34;97711.13;4928621;29;20073;-38
2021/01/27 03:38:50;;;;;;;5.70;1.93;;;1.20;67.90;;;1.61;60.18;97715.34;4928448;29;20063;-38
2021/01/27 03:41:31;;;;;;;3.40;1.90;;;1.20;67.70;;;1.61;60.77;97710.09;4928626;29;20353;-38
2021/01/27 03:44:17;;;;;;;5.10;2.33;;;1.20;67.60;;;1.63;60.78;97696.84;4928650;29;20043;-38
2021/01/27 03:47:07;;;;;;;4.13;2.13;;;1.30;67.80;;;1.64;59.94;97701.16;4944543;29;20383;-38
2021/01/27 03:49:59;;;;;;;2.90;1.97;;;1.30;67.20;;;1.65;60.06;97685.31;4928654;29;20047;-38
2021/01/27 03:52:54;;;;;;;1.77;1.43;;;1.30;67.10;;;1.68;60.31;97690.34;4928665;29;20061;-39
2021/01/27 03:55:44;;;;;;;2.87;1.73;;;1.30;67.20;;;1.69;60.80;97683.31;4929058;29;20051;-39
2021/01/27 03:58:29;;;;;;;3.43;2.00;;;1.30;67.50;;;1.68;60.30;97692.97;4944361;29;20071;-38
2021/01/27 04:01:06;;;;;;;4.53;1.70;;;1.30;68.20;;;1.64;60.46;97694.13;4929917;29;20062;-38
2021/01/27 04:03:34;;;;;;;4.40;1.97;;;1.20;68.30;;;1.61;59.82;97677.75;4928190;29;20433;-38
2021/01/27 04:06:03;;;;;;;3.83;2.20;;;1.10;68.80;;;1.58;60.95;97673.53;4944236;29;20047;-38
2021/01/27 04:08:30;;;;;;;6.50;2.43;;;1.10;69.20;;;1.57;60.86;97670.09;4944676;29;20054;-38
2021/01/27 04:11:01;;;;;;;4.30;2.47;;;1.10;69.40;;;1.55;60.26;97658.00;4944860;29;20058;-38
2021/01/27 04:13:29;;;;;;;5.33;2.80;;;1.10;69.60;;;1.53;60.78;97666.00;4944813;29;20061;-38
2021/01/27 04:15:58;;;;;;;3.93;2.77;;;1.00;69.80;;;1.52;60.92;97661.69;4944137;29;20052;-38
2021/01/27 04:18:26;;;;;;;4.50;3.00;;;1.00;69.70;;;1.49;60.61;97650.56;4944571;29;20062;-38
2021/01/27 04:20:54;;;;;;;5.40;2.63;;;1.00;70.00;;;1.49;60.42;97645.31;4943242;29;20047;-38
2021/01/27 04:23:22;;;;;;;7.43;2.90;;;1.00;70.10;;;1.49;61.04;97640.06;4943689;29;20053;-38
2021/01/27 04:25:50;;;;;;;5.83;3.57;;;1.00;70.20;;;1.47;60.50;97620.97;4944060;29;20048;-38
2021/01/27 04:28:17;;;;;;;5.67;3.53;;;1.00;70.50;;;1.46;60.87;97612.25;4944443;29;20062;-38
2021/01/27 04:30:45;;;;;;;5.67;3.40;;;1.00;70.80;;;1.47;60.95;97610.47;4946477;29;20051;-38
2021/01/27 04:33:12;;;;;;;5.07;3.40;;;1.00;71.00;;;1.45;61.24;97601.84;4948254;29;20052;-38
2021/01/27 04:35:40;;;;;;;4.33;3.07;;;1.00;71.10;;;1.45;60.99;97588.75;4947518;29;20252;-38
2021/01/27 04:38:07;;;;;;;9.40;3.73;;;0.90;71.30;;;1.44;60.99;97587.91;4947686;29;20062;-38
2021/01/27 04:40:43;;;;;;;5.90;3.83;;;0.90;71.40;;;1.43;60.96;97586.22;4948053;29;20051;-38
2021/01/27 04:43:39;;;;;;;5.37;3.53;;;1.00;71.40;;;1.45;61.72;97584.31;4948015;29;20044;-38
2021/01/27 04:46:45;;;;;;;6.27;3.80;;;1.00;71.30;;;1.45;61.80;97581.69;4947674;29;20146;-38
2021/01/27 04:49:26;;;;;;;7.90;3.73;;;1.00;71.40;;;1.47;61.17;97589.47;4946073;29;20056;-38
2021/01/27 04:52:18;;;;;;;6.43;3.60;;;1.00;71.60;;;1.48;61.36;97583.28;4947937;29;20059;-38
2021/01/27 04:55:04;;;;;;;7.93;3.73;;;1.00;71.70;;;1.46;61.83;97578.16;4915512;29;20055;-38
2021/01/27 04:58:09;;;;;;;7.50;4.10;;;1.00;71.80;;;1.43;61.51;97591.47;4947817;29;20259;-39
2021/01/27 05:00:51;;;;;;;6.27;4.23;;;1.00;72.30;;;1.41;62.09;97588.09;4933094;29;20047;-38
2021/01/27 05:03:49;;;;;;;5.20;3.60;;;0.90;72.40;;;1.39;61.45;97579.50;4947761;29;20052;-38
2021/01/27 05:06:31;;;;;;;6.50;3.53;;;0.90;72.60;;;1.38;61.50;97581.28;4947741;29;20055;-38
2021/01/27 05:09:19;;;;;;;6.90;3.63;;;0.90;72.90;;;1.37;62.10;97569.09;4931257;29;20228;-38
2021/01/27 05:11:48;;;;;;;6.67;3.90;;;0.90;73.10;;;1.35;61.99;97557.06;4947653;29;20051;-38
2021/01/27 05:14:19;;;;;;;6.33;4.03;;;0.90;73.10;;;1.37;61.75;97553.38;4930801;29;20248;-38
2021/01/27 05:16:50;;;;;;;7.30;5.23;;;0.90;72.90;;;1.41;62.13;97547.94;4930610;29;20063;-38
2021/01/27 05:19:18;;;;;;;7.10;4.20;;;1.00;72.70;;;1.42;62.49;97544.38;4930917;29;20077;-38
2021/01/27 05:21:55;;;;;;;4.63;3.43;;;1.10;72.70;;;1.43;62.45;97546.03;4930599;29;20368;-38
2021/01/27 05:24:23;;;;;;;34.23;15.67;;;1.10;72.50;;;1.44;61.82;97542.47;4947296;29;20051;-39
2021/01/27 05:27:22;;;;;;;13.87;8.90;;;1.10;72.40;;;1.47;62.21;97535.19;4946683;29;20060;-38
2021/01/27 05:30:04;;;;;;;14.30;10.07;;;1.20;72.30;;;1.51;61.78;97543.72;4933598;29;20050;-38
2021/01/27 05:33:04;;;;;;;11.10;9.50;;;1.20;72.10;;;1.53;62.15;97541.81;4942606;23;20055;-39
2021/01/27 05:35:38;;;;;;;7.90;4.80;;;1.20;72.00;;;1.54;61.98;97549.59;4926398;29;20114;-39
2021/01/27 05:38:29;;;;;;;8.63;4.20;;;1.20;72.00;;;1.54;62.16;97540.88;4928687;29;20058;-39
2021/01/27 05:41:22;;;;;;;5.97;3.77;;;1.10;71.90;;;1.52;62.17;97545.41;4927555;29;20052;-39
2021/01/27 05:43:55;;;;;;;7.47;4.30;;;1.10;72.20;;;1.47;62.05;97535.19;4926896;29;20052;-39
2021/01/27 05:46:35;;;;;;;10.70;5.73;;;1.00;72.40;;;1.46;61.67;97537.97;4926070;29;20272;-39
2021/01/27 05:49:11;;;;;;;13.60;7.83;;;1.00;72.60;;;1.49;61.78;97529.84;4927877;29;20044;-40
2021/01/27 05:51:39;;;;;;;14.00;6.90;;;1.10;72.90;;;1.49;61.82;97530.72;4941920;29;20052;-40
2021/01/27 05:54:26;;;;;;;6.97;4.73;;;1.10;72.60;;;1.53;61.71;97534.81;4927844;29;20063;-39
2021/01/27 05:56:54;;;;;;;6.77;4.43;;;1.20;72.70;;;1.55;61.92;97547.78;4927423;29;20395;-39
2021/01/27 05:59:25;;;;;;;9.23;6.63;;;1.20;72.50;;;1.54;61.96;97544.34;4926254;29;20396;-39
2021/01/27 06:02:01;;;;;;;10.27;7.47;;;1.20;72.00;;;1.50;61.72;97544.66;4924924;29;20048;-39
2021/01/27 06:04:34;;;;;;;11.67;7.00;;;1.00;72.60;;;1.49;61.60;97540.34;4942218;29;20058;-39
2021/01/27 06:07:10;;;;;;;7.73;5.53;;;1.00;72.80;;;1.51;62.18;97541.94;4926898;29;20055;-39
2021/01/27 06:09:48;;;;;;;6.77;4.80;;;1.10;73.00;;;1.52;61.78;97522.63;4928005;29;20120;-40
2021/01/27 06:12:18;;;;;;;5.03;3.73;;;1.10;73.00;;;1.53;62.49;97523.44;4942155;29;20048;-39
2021/01/27 06:15:02;;;;;;;5.57;4.30;;;1.10;72.70;;;1.55;62.61;97522.41;4927175;29;20052;-40
2021/01/27 06:17:48;;;;;;;6.47;3.67;;;1.10;72.70;;;1.56;62.01;97520.63;4927442;29;20056;-40
2021/01/27 06:20:17;;;;;;;6.43;4.00;;;1.10;72.90;;;1.54;61.95;97519.88;4939987;29;20052;-40
2021/01/27 06:23:27;;;;;;;4.73;3.27;;;1.10;73.00;;;1.54;62.67;97522.50;4927362;29;20044;-39
2021/01/27 06:26:28;;;;;;;5.57;3.30;;;1.20;72.70;;;1.55;62.82;97527.66;4926926;29;20066;-40
2021/01/27 06:29:24;;;;;;;4.93;3.30;;;1.20;72.50;;;1.56;62.47;97525.88;4927466;29;20051;-39
2021/01/27 06:32:09;;;;;;;7.83;3.50;;;1.20;71.60;;;1.57;62.40;97533.63;4927044;29;20349;-39
2021/01/27 06:34:57;;;;;;;5.87;3.10;;;1.10;71.70;;;1.54;62.12;97533.00;4927214;29;20059;-39
2021/01/27 06:37:34;;;;;;;5.17;3.60;;;1.10;72.00;;;1.54;61.78;97525.97;4927016;29;20388;-40
2021/01/27 06:40:35;;;;;;;6.00;4.13;;;1.00;72.60;;;1.55;62.32;97524.19;4927050;29;20059;-39
2021/01/27 06:43:34;;;;;;;6.97;3.10;;;1.10;72.60;;;1.56;61.87;97520.63;4939157;29;20062;-40
2021/01/27 06:46:46;;;;;;;5.13;3.10;;;1.10;72.60;;;1.58;61.70;97530.03;4926510;29;20066;-39
2021/01/27 06:49:58;;;;;;;5.80;3.53;;;1.10;72.50;;;1.60;62.39;97518.63;4939005;29;20048;-39
2021/01/27 06:52:49;;;;;;;6.97;3.13;;;1.20;72.60;;;1.58;61.94;97518.72;4930768;29;20060;-40
2021/01/27 06:55:29;;;;;;;6.87;3.87;;;1.10;71.80;;;1.56;61.93;97518.00;4939528;29;20247;-40
2021/01/27 06:58:14;;;;;;;6.77;4.57;;;1.00;72.20;;;1.56;61.94;97521.44;4926786;29;20052;-39
2021/01/27 07:01:14;;;;;;;7.53;4.27;;;1.10;72.50;;;1.57;61.41;97519.66;4928699;29;20258;-39
2021/01/27 07:04:08;;;;;;;9.07;4.23;;;1.10;71.70;;;1.58;62.20;97523.97;4945235;29;20237;-39
2021/01/27 07:07:19;;;;;;;4.85;2.38;;;1.10;72.00;;;1.58;61.71;97519.56;4945193;29;20040;-40
2021/01/27 07:10:26;;;;;;;4.23;2.67;;;1.10;71.50;;;1.59;61.62;97528.28;4945577;29;20237;-40
2021/01/27 07:13:19;;;;;;;5.57;2.20;;;1.20;71.60;;;1.62;62.25;97528.06;4944586;29;20055;-40
2021/01/27 07:16:06;;;;;;;4.00;2.20;;;1.20;71.40;;;1.64;62.12;97528.78;4943936;29;20257;-39
2021/01/27 07:19:11;;;;;;;5.10;2.43;;;1.20;71.50;;;1.68;61.79;97530.25;4945013;29;20066;-40
2021/01/27 07:22:14;;;;;;;2.73;2.10;;;1.20;71.30;;;1.69;61.67;97534.56;4943871;29;20062;-40
2021/01/27 07:24:53;;;;;;;3.93;2.13;;;1.30;71.00;;;1.72;61.89;97533.50;4944209;29;20044;-40
2021/01/27 07:27:23;;;;;;;3.23;2.10;;;1.30;71.20;;;1.72;61.42;97544.81;4945572;29;20321;-40
2021/01/27 07:30:01;;;;;;;2.50;1.70;;;1.30;70.20;;;1.75;61.22;97546.41;4927931;29;20379;-40
2021/01/27 07:32:49;;;;;;;4.60;2.10;;;1.40;69.40;;;1.74;61.70;97556.03;4945069;29;20059;-40
2021/01/27 07:36:17;;;;;;;2.30;1.47;;;1.40;70.00;;;1.71;61.08;97561.53;4943559;29;20050;-40
2021/01/27 07:38:48;;;;;;;1.90;1.20;;;1.40;70.50;;;1.65;61.75;97551.47;4939092;29;20067;-40
2021/01/27 07:41:22;;;;;;;2.97;1.40;;;1.40;71.40;;;1.71;62.16;97555.44;4944146;29;20059;-40
2021/01/27 07:44:01;;;;;;;3.20;1.03;;;1.40;72.10;;;1.73;62.59;97557.00;4943594;29;20047;-40
2021/01/27 07:46:40;;;;;;;1.03;0.80;;;1.40;72.60;;;1.71;62.28;97548.41;4944137;29;20051;-40
2021/01/27 07:49:10;;;;;;;3.63;1.10;;;1.40;73.80;;;1.73;62.96;97549.13;4944419;29;20059;-40
2021/01/27 07:52:00;;;;;;;1.93;1.83;;;1.40;74.20;;;1.74;63.07;97555.22;4943836;29;20253;-39
2021/01/27 07:54:39;;;;;;;1.37;1.03;;;1.40;75.00;;;1.75;63.41;97565.63;4943018;29;20062;-40
2021/01/27 07:57:31;;;;;;;1.53;1.00;;;1.40;75.60;;;1.73;64.02;97561.44;4943661;29;20057;-40
2021/01/27 08:00:42;;;;;;;2.00;1.23;;;1.40;76.50;;;1.74;63.96;97565.72;4944071;29;20356;-39
2021/01/27 08:03:30;;;;;;;1.23;0.93;;;1.30;77.20;;;1.77;63.76;97563.72;4925992;29;20059;-39
2021/01/27 08:06:07;;;;;;;1.63;1.13;;;1.40;77.90;;;1.79;63.59;97579.38;4942415;29;20055;-40
2021/01/27 08:09:03;;;;;;;3.07;1.23;;;1.40;76.70;;;1.77;64.08;97578.63;4943717;29;20051;-40
2021/01/27 08:11:34;;;;;;;3.43;1.40;;;1.40;77.40;;;1.80;63.91;97595.94;4944510;29;20066;-40
2021/01/27 08:14:03;;;;;;;1.73;1.30;;;1.40;77.40;;;1.81;63.95;97580.09;4943030;29;20059;-40
2021/01/27 08:16:43;;;;;;;1.37;1.10;;;1.40;77.30;;;1.81;63.76;97580.09;4942673;29;20060;-39
2021/01/27 08:19:11;;;;;;;2.30;1.80;;;1.40;77.80;;;1.83;63.90;97590.50;4944639;29;20059;-39
2021/01/27 08:22:01;;;;;;;1.80;1.10;;;1.40;78.30;;;1.77;64.69;97581.25;4944393;29;20047;-40
2021/01/27 08:24:37;;;;;;;2.27;1.13;;;1.30;78.80;;;1.79;64.33;97571.50;4927694;29;20249;-40
2021/01/27 08:27:10;;;;;;;3.07;1.20;;;1.30;78.80;;;1.77;64.51;97576.00;4944189;29;20047;-40
2021/01/27 08:29:54;;;;;;;1.50;1.33;;;1.30;79.00;;;1.77;64.36;97578.63;4944272;29;20058;-39
2021/01/27 08:32:35;;;;;;;1.98;1.35;;;1.30;79.80;;;1.73;65.00;97572.75;4944297;29;20054;-40
2021/01/27 08:35:08;;;;;;;1.90;1.30;;;1.30;79.90;;;1.72;64.96;97565.81;4943014;29;20290;-40
2021/01/27 08:37:39;;;;;;;1.90;1.43;;;1.30;79.90;;;1.75;65.07;97564.78;4944266;29;20048;-40
2021/01/27 08:40:21;;;;;;;1.30;1.13;;;1.40;79.70;;;1.79;64.74;97568.88;4944282;29;20052;-40
2021/01/27 08:42:55;;;;;;;5.17;2.40;;;1.40;80.00;;;1.80;64.78;97570.53;4944126;29;20043;-39
2021/01/27 08:45:23;;;;;;;6.03;2.63;;;1.40;79.80;;;1.82;65.15;97567.81;4942758;29;20052;-40
2021/01/27 08:48:05;;;;;;;5.17;2.10;;;1.40;79.60;;;1.84;65.36;97563.28;4943957;29;20055;-40
2021/01/27 08:50:52;;;;;;;3.07;1.37;;;1.50;80.10;;;1.84;65.39;97560.66;4944217;29;20047;-39
2021/01/27 08:53:47;;;;;;;2.80;1.60;;;1.40;80.00;;;1.83;65.35;97554.56;4943385;29;20044;-40
2021/01/27 08:56:15;;;;;;;1.77;1.40;;;1.40;79.70;;;1.82;64.96;97550.25;4942691;29;20070;-39
2021/01/27 08:58:49;;;;;;;2.13;1.30;;;1.40;79.70;;;1.86;65.23;97558.75;4943863;29;20063;-40
2021/01/27 09:01:22;;;;;;;3.45;1.80;;;1.40;80.00;;;1.86;65.32;97550.88;4943637;29;20392;-40
2021/01/27 09:03:52;;;;;;;2.30;1.73;;;1.50;80.30;;;1.86;65.14;97553.50;4943538;29;20056;-40
2021/01/27 09:06:44;;;;;;;3.93;1.60;;;1.50;80.30;;;1.87;65.76;97561.28;4943723;29;20054;-40
2021/01/27 09:09:26;;;;;;;4.00;1.67;;;1.50;80.50;;;1.89;65.59;97563.81;4943538;29;20062;-40
2021/01/27 09:12:10;;;;;;;3.77;1.90;;;1.50;80.10;;;1.93;66.09;97563.47;4944111;29;20047;-40
2021/01/27 09:14:37;;;;;;;2.90;1.80;;;1.60;80.40;;;1.95;65.41;97558.09;4943882;29;20058;-39
2021/01/27 09:17:07;;;;;;;5.77;2.07;;;1.60;80.10;;;1.97;65.62;97549.16;4946276;29;20062;-40
2021/01/27 09:19:37;;;;;;;3.13;2.00;;;1.60;80.10;;;2.01;65.97;97543.72;4947641;29;20059;-40
2021/01/27 09:22:10;;;;;;;3.77;2.30;;;1.70;80.00;;;2.04;65.56;97549.59;4947208;29;20056;-40
2021/01/27 09:24:44;;;;;;;2.60;2.00;;;1.70;79.80;;;2.06;65.41;97541.59;4946186;29;20047;-40
2021/01/27 09:27:29;;;;;;;3.58;2.42;;;1.70;79.90;;;2.05;66.16;97538.13;4947322;29;20048;-40
2021/01/27 09:30:13;;;;;;;2.80;2.00;;;1.70;79.60;;;2.07;65.77;97541.47;4947231;29;20062;-40
2021/01/27 09:32:41;;;;;;;4.60;2.17;;;1.80;79.40;;;2.06;65.66;97544.22;4947215;29;20062;-37
2021/01/27 09:35:21;;;;;;;3.50;2.30;;;1.80;79.10;;;2.08;65.38;97530.03;4946672;29;20353;-40
2021/01/27 09:38:02;;;;;;;4.90;2.63;;;1.80;79.30;;;2.12;65.76;97520.97;4947184;29;20055;-40
2021/01/27 09:40:53;;;;;;;3.50;2.33;;;1.80;79.20;;;2.10;66.26;97520.25;4947065;29;20051;-40
2021/01/27 09:43:22;;;;;;;2.57;1.73;;;1.80;79.20;;;2.11;66.06;97526.31;4946941;29;20051;-40
2021/01/27 09:45:52;;;;;;;3.90;2.30;;;1.80;78.80;;;2.11;65.68;97516.69;4945203;29;20265;-40
2021/01/27 09:48:23;;;;;;;3.77;2.17;;;1.80;78.70;;;2.11;66.08;97514.06;4945824;29;20043;-40
2021/01/27 09:51:00;;;;;;;3.20;2.27;;;1.80;78.50;;;2.08;65.97;97506.38;4929970;29;20131;-40
2021/01/27 09:53:38;;;;;;;4.27;2.03;;;1.90;78.70;;;2.11;65.37;97510.56;4946001;29;20058;-40
2021/01/27 09:56:10;;;;;;;5.27;2.60;;;1.80;78.90;;;2.09;66.05;97505.41;4945338;29;20044;-40
2021/01/27 09:58:41;;;;;;;3.60;2.17;;;1.80;79.10;;;2.06;66.23;97500.41;4946885;29;20051;-40
2021/01/27 10:01:25;;;;;;;6.90;2.37;;;1.80;78.80;;;2.08;66.35;97501.13;4944382;29;20068;-40
2021/01/27 10:04:28;;;;;;;3.85;2.10;;;1.80;79.00;;;2.03;66.08;97491.91;4945573;29;20063;-40
2021/01/27 10:07:08;;;;;;;3.47;2.07;;;1.90;79.00;;;2.06;66.28;97482.03;4931149;29;20365;-40
2021/01/27 10:10:07;;;;;;;5.57;2.20;;;1.90;79.20;;;2.10;65.72;97470.34;4945619;29;20054;-40
2021/01/27 10:12:36;;;;;;;2.10;1.63;;;1.90;78.40;;;2.13;65.94;97470.13;4946183;29;20342;-40
2021/01/27 10:15:31;;;;;;;4.77;2.17;;;2.00;78.10;;;2.16;65.76;97474.31;4945973;29;20059;-40
2021/01/27 10:18:20;;;;;;;3.35;1.88;;;2.10;77.90;;;2.18;65.84;97472.41;4945046;29;20063;-40
2021/01/27 10:20:48;;;;;;;4.97;1.87;;;2.10;77.70;;;2.21;65.72;97472.19;4944742;29;20058;-40
2021/01/27 10:23:44;;;;;;;3.03;1.97;;;2.10;77.80;;;2.27;66.04;97474.38;4943533;29;20054;-40
2021/01/27 10:26:37;;;;;;;3.67;1.67;;;2.10;77.90;;;2.34;65.76;97469.47;4945805;29;20308;-40
2021/01/27 10:29:20;;;;;;;2.30;1.60;;;2.00;77.10;;;2.27;65.92;97463.00;4944604;29;20051;-40
2021/01/27 10:31:51;;;;;;;2.60;1.50;;;2.10;77.10;;;2.32;65.76;97468.75;4945989;29;20257;-40
2021/01/27 10:34:43;;;;;;;3.83;1.83;;;2.20;76.80;;;2.36;65.36;97468.44;4945957;29;20058;-39
2021/01/27 10:37:30;;;;;;;2.40;1.90;;;2.20;77.00;;;2.41;65.42;97475.13;4945914;29;20057;-37
2021/01/27 10:40:31;;;;;;;4.10;2.43;;;2.30;76.70;;;2.42;64.59;97463.66;4945954;29;20360;-38
2021/01/27 10:43:23;;;;;;;2.73;1.57;;;2.20;75.90;;;2.44;64.90;97472.25;4944893;29;20055;-39
2021/01/27 10:45:50;;;;;;;4.23;1.80;;;2.20;76.30;;;2.44;65.01;97467.84;4945290;29;20051;-38
2021/01/27 10:48:21;;;;;;;4.07;2.40;;;2.20;76.50;;;2.47;65.16;97477.28;4945716;29;20049;-38
2021/01/27 10:51:15;;;;;;;5.23;2.00;;;2.20;76.20;;;2.46;64.17;97467.72;4945573;29;20055;-38
2021/01/27 10:53:44;;;;;;;4.03;2.00;;;2.20;75.70;;;2.44;65.20;97475.72;4945024;29;20257;-38
2021/01/27 10:56:17;;;;;;;3.63;2.13;;;2.20;75.90;;;2.43;65.14;97481.94;4944079;29;20238;-38
2021/01/27 10:58:46;;;;;;;3.97;2.60;;;2.20;75.70;;;2.45;64.79;97473.94;4945664;29;20043;-38
2021/01/27 11:01:14;;;;;;;2.20;1.83;;;2.20;75.80;;;2.46;65.11;97473.84;4944214;29;20249;-38
2021/01/27 11:03:41;;;;;;;3.27;1.97;;;2.20;75.90;;;2.46;64.67;97473.84;4945518;29;20047;-39
2021/01/27 11:06:09;;;;;;;3.00;2.10;;;2.30;75.90;;;2.49;65.17;97478.03;4943903;29;20050;-39
2021/01/27 11:08:44;;;;;;;3.53;2.00;;;2.20;75.80;;;2.50;65.23;97469.16;4945531;29;20047;-39
2021/01/27 11:11:12;;;;;;;4.40;2.00;;;2.20;76.00;;;2.46;65.04;97463.31;4944623;29;20057;-39
2021/01/27 11:13:40;;;;;;;2.67;2.00;;;2.20;75.80;;;2.50;64.83;97467.41;4945405;29;20345;-39
2021/01/27 11:16:10;;;;;;;2.57;1.63;;;2.30;76.10;;;2.50;64.72;97474.41;4944556;29;20059;-39
2021/01/27 11:18:38;;;;;;;3.07;2.03;;;2.30;75.70;;;2.55;65.09;97475.75;4944968;29;20089;-38
2021/01/27 11:21:08;;;;;;;4.60;2.83;;;2.30;75.90;;;2.59;64.55;97468.47;4945245;29;20050;-38
2021/01/27 11:23:35;;;;;;;4.17;2.57;;;2.30;75.60;;;2.58;65.00;97463.34;4945123;29;20369;-38
2021/01/27 11:26:03;;;;;;;3.97;2.37;;;2.40;75.00;;;2.58;64.50;97469.44;4944719;29;20058;-39